Disclaimer

Please do not use the information listed here in-flight or in-navigation, as they are not provided to us by the airports but are provided by volunteers, so they might be outdated.

Search


Regions


Airport information page

Radio informations:
Tower (TWR) - 124.0 MHz
Automatic Terminal Information Service (ATIS) - 119.25 MHz
Approach (APP) - 124.0 MHz

Airport informations:
Latitude: 40° 44' 15.64" N
Longitude: 046° 19' 03.29" E
Elevation: 1083 feet - 330 meters
Operating hours: 24 hour operations
Operating agency: Civil government, landing fees and diplomatic clearance may be required
Timezone: UTC+4(+5DT) - Last Sunday in March to last Sunday in October
Fuel: Unknown fuel type or whether there is any fuel.

Runway information:
12/30 - 8217 x 144 feet< - >2505 x 44 meters

Recent METARs:
UBBG 180630Z 28008KT 9999 SCT100 10/02 Q1024 R30/CLRD// NOSIG
UBBG 180700Z 30010KT 9999 SCT100 12/02 Q1024 R30/CLRD// NOSIG
UBBG 180730Z 31010KT 9999 SCT100 12/02 Q1024 R30/CLRD// NOSIG

Airport on the map: